Geddes, South Dakota
Current Conditions -  °F | °C
As of 11:05 AM on Monday 22 Dec 2014 (Local Time) from KMHE Reporting Station
Haze Haze  
Wind Chill: 30°   Ceiling: 1200
Heat Index: 36°   Visibility: 3mi
Dew Point: 35°   Wind: 7mph
Humidity: 97%   Direction: 280°W
Pressure: 29.45"   Gusts: NA
Location:  43.25°N, 98.7°W
Report Text: KMHE 221705Z AUTO 28006KT 3SM BR SCT004 BKN012 OVC035 02/02 A2945 RMK AO2 T00220017
Loading
Personal Weather Stations






























Interactive Weather Map New forecast layout! Learn more

10-Day Weather Forecast

Advertisements
Track Severe Weather on mobile